• Join FlightAware (Why Join?)
  • Login
  • US Flag 
01:43PM EDT


 

Airport Tracker/Info


-or-


 

Live Flight TrackerFlight Track Log ✈ N830QS ✈ 16-Aug-2013 ✈ KSUN - KSMO

Flight Track Log - Related Links

Times and Time Zones

All times are in EDT time to prevent confusion due to time zone crossing. See the N830QS flight status page for this flight to view local times or setup timezone preferences in your user account.

Time Position Orientation Groundspeed Altitude Reporting Facility
EDT Latitude Longitude Course Direction KTS MPH feet Rate Location/Type
06:19PM 43.2678 -114.2569 192° South 320 368 11,000  Level Salt Lake Center
06:20PM 43.0540 -114.3410 187° South  Level FlightAware Approximate
06:20PM 43.1900 -114.3308 215° Southwest 326 375 13,100  Level Salt Lake Center
06:21PM 42.9580 -114.3684 188° South  Level FlightAware Approximate
06:21PM 43.1142 -114.4064 216° Southwest 324 373 15,200  Level Salt Lake Center
06:22PM 42.8604 -114.3884 189° South  Level FlightAware Approximate
06:22PM 43.0428 -114.4772 216° Southwest 328 377 17,100  Level Salt Lake Center
06:23PM 42.7631 -114.4101 189° South  Level FlightAware Approximate
06:23PM 42.9664 -114.5561 217° Southwest 330 380 19,100  Level Salt Lake Center
06:24PM 42.6664 -114.4368 192° South  Level FlightAware Approximate
06:24PM 42.8953 -114.6267 216° Southwest 335 386 21,000  Level Salt Lake Center
06:25PM 42.5701 -114.4657 192° South  Level FlightAware Approximate
06:25PM 42.7992 -114.6742 200° South 331 381 23,300  Level Salt Lake Center
06:26PM 42.7103 -114.7006 192° South 339 390 24,800 1,380 Climbing Salt Lake Center
06:27PM 42.6197 -114.7281 193° South 348 400 26,200 1,560 Climbing Salt Lake Center
06:28PM 42.5047 -114.7639 193° South 353 406 28,000 1,560 Climbing Salt Lake Center
06:29PM 42.4086 -114.7931 193° South 354 407 29,500 1,440 Climbing Salt Lake Center
06:31PM 42.3125 -114.8219 193° South 355 409 31,000 1,440 Climbing Salt Lake Center
06:32PM 42.2167 -114.8506 192° South 354 407 32,500 1,500 Climbing Salt Lake Center
06:33PM 42.1103 -114.8831 193° South 352 405 34,200 1,500 Climbing Salt Lake Center
06:34PM 42.0203 -114.9097 192° South 348 400 35,600 1,200 Climbing Salt Lake Center
06:35PM 41.9147 -114.9422 193° South 349 402 36,700 960 Climbing Salt Lake Center
06:36PM 41.8225 -114.9689 192° South 352 405 37,700 900 Climbing Salt Lake Center
06:37PM 41.7300 -114.9961 192° South 355 409 38,600 840 Climbing Salt Lake Center
06:38PM 41.6269 -115.0369 196° South 346 398 39,500 660 Climbing Salt Lake Center
06:39PM 41.5653 -115.1250 227° Southwest 340 391 40,000 240 Climbing Salt Lake Center
06:40PM 41.5119 -115.2528 241° Southwest 351 404 40,000  Level Salt Lake Center
06:41PM 41.4650 -115.3653 241° Southwest 361 415 40,000  Level Salt Lake Center
06:42PM 41.4083 -115.4994 241° Southwest 370 426 40,000  Level Salt Lake Center
06:43PM 41.3603 -115.6153 241° Southwest 372 428 40,000  Level Salt Lake Center
06:44PM 41.3100 -115.7311 240° Southwest 376 433 40,000  Level Salt Lake Center
06:45PM 41.2533 -115.8675 241° Southwest 377 434 40,000  Level Salt Lake Center
06:46PM 41.2036 -115.9842 240° Southwest 378 435 40,000  Level Salt Lake Center
06:47PM 41.1464 -116.1203 241° Southwest 379 436 40,000  Level Salt Lake Center
06:48PM 41.0947 -116.2356 239° Southwest 380 437 40,000  Level Salt Lake Center
06:49PM 41.0381 -116.3731 241° Southwest 382 440 40,000  Level Salt Lake Center
06:50PM 40.9881 -116.4878 240° Southwest 379 436 40,000  Level Salt Lake Center
06:51PM 40.9272 -116.6228 239° Southwest 383 441 40,000  Level Salt Lake Center
06:52PM 40.8778 -116.7378 240° Southwest 379 436 40,000  Level Salt Lake Center
06:53PM 40.8264 -116.8525 239° Southwest 380 437 40,000  Level Salt Lake Center
06:54PM 40.7678 -116.9867 240° Southwest 380 437 40,000  Level Salt Lake Center
06:55PM 40.7167 -117.1014 240° Southwest 381 438 40,000  Level Salt Lake Center
06:56PM 40.6575 -117.2342 240° Southwest 379 436 40,000  Level Salt Lake Center
06:57PM 40.6064 -117.3486 240° Southwest 379 436 40,000  Level Salt Lake Center
06:58PM 40.5469 -117.4811 239° Southwest 379 436 40,000  Level Salt Lake Center
06:59PM 40.4950 -117.5936 239° Southwest 378 435 40,000  Level Salt Lake Center
07:00PM 40.4356 -117.7258 239° Southwest 378 435 40,000  Level Salt Lake Center
07:01PM 40.3842 -117.8383 239° Southwest 376 433 40,000  Level Salt Lake Center
07:02PM 40.3433 -117.9269 239° Southwest 378 435 40,000  Level Oakland Center
07:03PM 40.2889 -118.0453 239° Southwest 379 436 40,000  Level Oakland Center
07:04PM 40.2244 -118.1861 239° Southwest 378 435 40,000  Level Oakland Center
07:05PM 40.1706 -118.3033 239° Southwest 378 435 40,000  Level Oakland Center
07:06PM 40.1164 -118.4219 239° Southwest 380 437 40,000  Level Oakland Center
07:07PM 40.0619 -118.5411 239° Southwest 384 442 40,000 60 Level Oakland Center
07:08PM 40.0069 -118.6575 238° Southwest 380 437 40,200 300 Climbing Oakland Center
07:09PM 39.9528 -118.7717 238° Southwest 375 432 40,700 360 Climbing Oakland Center
07:10PM 39.8906 -118.9061 239° Southwest 367 422 41,000 120 Climbing Oakland Center
07:11PM 39.8283 -119.0117 233° Southwest 375 432 41,000  Level Oakland Center
07:12PM 39.7333 -119.0625 202° Southwest 382 440 41,000  Level Oakland Center
07:14PM 39.6281 -119.0781 186° South 382 440 41,000  Level Oakland Center
07:15PM 39.5242 -119.0947 187° South 380 437 41,000  Level Oakland Center
07:16PM 39.4189 -119.1103 187° South 383 441 41,000  Level Oakland Center
07:17PM 39.2939 -119.1300 187° South 381 438 41,000  Level Oakland Center
07:18PM 39.1892 -119.1453 186° South 382 440 41,000  Level Oakland Center
07:19PM 39.0825 -119.1619 187° South 385 443 41,000  Level Oakland Center
07:20PM 38.9756 -119.1781 187° South 387 445 41,000  Level Oakland Center
07:21PM 38.8689 -119.1936 186° South 387 445 41,000  Level Oakland Center
07:22PM 38.7639 -119.2100 187° South 384 442 41,000  Level Oakland Center
07:23PM 38.6356 -119.2286 186° South 386 444 41,000  Level Oakland Center
07:24PM 38.5275 -119.2450 187° South 391 450 41,000  Level Oakland Center
07:25PM 38.4197 -119.2614 187° South 390 449 41,000  Level Oakland Center
07:26PM 38.3114 -119.2769 186° South 391 450 41,000  Level Oakland Center
07:27PM 38.2033 -119.2928 187° South 390 449 41,000  Level Oakland Center
07:28PM 38.0817 -119.3114 187° South 388 447 41,000 -120 Level Oakland Center
07:29PM 37.9731 -119.3269 186° South 391 450 40,800 -660 Descending Oakland Center
07:30PM 37.8669 -119.3428 187° South 385 443 39,700 -900 Descending Oakland Center
07:31PM 37.7589 -119.3583 186° South 388 447 39,000 -360 Descending Oakland Center
07:32PM 37.6567 -119.3742 187° South 376 433 39,000  Level Oakland Center
07:33PM 37.5417 -119.3922 187° South 373 429 39,000  Level Oakland Center
07:34PM 37.4358 -119.4069 186° South 380 437 39,000  Level Oakland Center
07:35PM 37.3267 -119.4242 187° South 392 451 39,000  Level Oakland Center
07:36PM 37.2186 -119.4392 186° South 391 450 39,000  Level Oakland Center
07:37PM 37.1111 -119.4553 187° South 390 449 39,000  Level Oakland Center
07:38PM 37.0028 -119.4711 187° South 390 449 39,000  Level Oakland Center
07:39PM 36.8958 -119.4861 186° South 388 447 39,000  Level Oakland Center
07:40PM 36.7653 -119.5039 186° South 393 452 39,000  Level Oakland Center
07:41PM 36.6569 -119.5200 187° South 391 450 39,000  Level Oakland Center
07:42PM 36.5489 -119.5353 186° South 391 450 39,000  Level Oakland Center
07:43PM 36.4406 -119.5500 186° South 391 450 39,000  Level Oakland Center
07:44PM 36.3328 -119.5644 186° South 391 450 39,000  Level Oakland Center
07:45PM 36.2239 -119.5811 187° South 391 450 39,000  Level Oakland Center
07:46PM 36.1167 -119.5953 186° South 389 448 39,000  Level Oakland Center
07:47PM 35.9867 -119.6136 187° South 390 449 39,000  Level Oakland Center
07:48PM 35.8772 -119.6181 182° South 391 450 39,000 -720 Level Oakland Center
07:49PM 35.7697 -119.6214 181° South 387 445 37,600 -1,680 Descending Oakland Center
07:51PM 35.6642 -119.6275 183° South 379 436 35,600 -1,980 Descending Oakland Center
07:52PM 35.5542 -119.6306 181° South 390 449 33,600 -1,920 Descending Oakland Center
07:53PM 35.4428 -119.6228 177° South 401 461 31,600 -1,920 Descending Los Angeles Center
07:54PM 35.3333 -119.5900 166° South 402 463 29,600 -2,220 Descending Los Angeles Center
07:55PM 35.2039 -119.5281 159° South 420 483 27,100 -2,220 Descending Los Angeles Center
07:56PM 35.1058 -119.4550 149° Southeast 412 474 25,100 -2,040 Descending Los Angeles Center
07:57PM 35.0106 -119.3833 148° Southeast 405 466 22,900 -2,160 Descending Los Angeles Center
07:58PM 34.9156 -119.3119 148° Southeast 402 463 20,700 -1,920 Descending Los Angeles Center
07:59PM 34.8439 -119.2564 148° Southeast 389 448 19,000 -2,040 Descending Los Angeles Center
08:00PM 34.7394 -119.1792 149° Southeast 368 423 16,600 -2,280 Descending Los Angeles Center
08:01PM 34.6397 -119.1050 149° Southeast 365 420 14,300 -2,040 Descending Los Angeles Center
08:02PM 34.5578 -119.0433 148° Southeast 346 398 12,400 -1,620 Descending Los Angeles Center
08:03PM 34.4797 -118.9853 148° Southeast 328 377 11,000 -1,020 Descending Los Angeles Center
08:04PM 34.4128 -118.9261 144° Southeast 301 346 10,400 -1,020 Descending Los Angeles Center
08:05PM 34.3511 -118.8622 139° Southeast 295 339 8,900 -1,200 Descending Los Angeles Center
08:06PM 34.3131 -118.7553 113° Southeast 283 326 8,000 -780 Descending Los Angeles Center
08:07PM 34.2828 -118.6633 112° Southeast 292 336 7,300 -480 Descending Los Angeles Center
08:08PM 34.2522 -118.5731 112° Southeast 290 334 7,000 -180 Descending Los Angeles Center
08:09PM 34.2278 -118.5036 113° Southeast 227 261 7,000  Level Los Angeles Center
08:10PM 34.2097 -118.4392 109° East 204 235 7,000  Level Los Angeles Center
08:11PM 34.2417 -118.3842 55° Northeast 198 228 7,000 -540 Level Los Angeles Center
08:12PM 34.2108 -118.3144 118° Southeast 200 230 6,000 -540 Descending Los Angeles Center
08:13PM 34.1775 -118.2856 144° Southeast 175 201 6,000 -600 Level Los Angeles Center
08:14PM 34.1267 -118.3025 195° South 186 214 4,800 -1,680 Descending Los Angeles Center
08:15PM 34.0917 -118.3536 230° Southwest 205 236 2,600 -1,440 Descending Los Angeles Center
08:16PM 34.0606 -118.3931 226° Southwest 181 208 1,900 -960 Descending Los Angeles Center
08:17PM 34.0336 -118.4303 229° Southwest 146 168 700 -900 Descending Los Angeles Center
08:18PM 34.0175 -118.4511 227° Southwest 127 146 100 -600 Descending Los Angeles Center